createdAt,value
2022-12-11T00:01:37.803Z,92844.42
2022-12-11T00:04:04.212Z,92868.52
2022-12-11T00:06:30.564Z,92856.62
2022-12-11T00:08:56.972Z,92863.38
2022-12-11T00:11:23.358Z,92868.20
2022-12-11T00:13:49.765Z,92865.95
2022-12-11T00:16:16.173Z,92848.90
2022-12-11T00:18:42.516Z,92836.37
2022-12-11T00:21:08.861Z,92843.73
2022-12-11T00:23:35.256Z,92839.43
2022-12-11T00:26:01.610Z,92823.52
2022-12-11T00:28:27.993Z,92837.30
2022-12-11T00:30:54.344Z,92828.30
2022-12-11T00:33:20.730Z,92837.18
2022-12-11T00:35:47.092Z,92824.80
2022-12-11T00:38:13.475Z,92832.84
2022-12-11T00:40:39.810Z,92826.56
2022-12-11T00:43:06.198Z,92816.28
2022-12-11T00:45:32.554Z,92829.47
2022-12-11T00:47:58.933Z,92818.52
2022-12-11T00:50:25.386Z,92821.42
2022-12-11T00:52:51.816Z,92829.47
2022-12-11T00:55:18.131Z,92834.13
2022-12-11T00:57:44.497Z,92814.84
2022-12-11T01:00:11.030Z,92833.14
2022-12-11T01:02:37.512Z,92820.94
2022-12-11T01:05:03.831Z,92830.75
2022-12-11T01:07:30.177Z,92846.00
2022-12-11T01:09:56.562Z,92839.09
2022-12-11T01:12:22.901Z,92826.09
2022-12-11T01:14:49.342Z,92846.81
2022-12-11T01:17:15.681Z,92838.47
2022-12-11T01:19:42.094Z,92853.42
2022-12-11T01:22:08.435Z,92806.31
2022-12-11T01:24:34.849Z,92833.32
2022-12-11T01:27:01.197Z,92838.80
2022-12-11T01:29:27.598Z,92867.23
2022-12-11T01:31:53.931Z,92871.91
2022-12-11T01:34:20.313Z,92873.82
2022-12-11T01:36:46.780Z,92890.55
2022-12-11T01:39:13.180Z,92847.80
2022-12-11T01:41:39.528Z,92846.31
2022-12-11T01:44:05.910Z,92848.58
2022-12-11T01:46:32.278Z,92847.59
2022-12-11T01:48:58.643Z,92798.72
2022-12-11T01:51:24.980Z,92814.66
2022-12-11T01:53:51.369Z,92850.52
2022-12-11T01:56:17.716Z,92835.09
2022-12-11T01:58:44.098Z,92840.23
2022-12-11T02:01:10.506Z,92823.03
2022-12-11T02:03:36.862Z,92846.67
2022-12-11T02:06:03.227Z,92865.14
2022-12-11T02:08:29.665Z,92841.52
2022-12-11T02:10:55.962Z,92839.75
2022-12-11T02:13:22.341Z,92829.61
2022-12-11T02:15:48.685Z,92823.03
2022-12-11T02:18:15.090Z,92828.17
2022-12-11T02:20:41.483Z,92835.41
2022-12-11T02:23:07.872Z,92826.89
2022-12-11T02:25:34.214Z,92824.44
2022-12-11T02:28:00.604Z,92811.27
2022-12-11T02:30:26.954Z,92810.66
2022-12-11T02:32:53.342Z,92798.73
2022-12-11T02:35:19.678Z,92789.72
2022-12-11T02:37:46.067Z,92775.27
2022-12-11T02:40:12.403Z,92759.19
2022-12-11T02:42:38.787Z,92778.65
2022-12-11T02:45:05.165Z,92759.84
2022-12-11T02:47:31.537Z,92741.69
2022-12-11T02:49:57.874Z,92738.13
2022-12-11T02:52:24.292Z,92746.17
2022-12-11T02:54:50.615Z,92738.13
2022-12-11T02:57:16.999Z,92755.98
2022-12-11T02:59:43.373Z,92759.03
2022-12-11T03:02:09.759Z,92758.70
2022-12-11T03:04:36.133Z,92773.33
2022-12-11T03:07:02.511Z,92782.98
2022-12-11T03:09:28.856Z,92788.61
2022-12-11T03:11:55.246Z,92788.61
2022-12-11T03:14:21.586Z,92784.91
2022-12-11T03:16:47.973Z,92780.28
2022-12-11T03:19:14.351Z,92774.14
2022-12-11T03:21:40.738Z,92754.55
2022-12-11T03:24:07.080Z,92742.17
2022-12-11T03:26:33.495Z,92765.33
2022-12-11T03:28:59.845Z,92749.41
2022-12-11T03:31:26.258Z,92755.84
2022-12-11T03:33:52.607Z,92748.42
2022-12-11T03:36:19.008Z,92752.46
2022-12-11T03:38:45.370Z,92783.95
2022-12-11T03:41:11.760Z,92768.52
2022-12-11T03:43:38.119Z,92763.56
2022-12-11T03:46:04.565Z,92793.28
2022-12-11T03:48:30.860Z,92791.66
2022-12-11T03:50:57.234Z,92794.23
2022-12-11T03:53:25.686Z,92789.90
2022-12-11T03:55:49.969Z,92796.66
2022-12-11T03:58:16.310Z,92795.05
2022-12-11T04:00:42.691Z,92793.28
2022-12-11T04:03:13.281Z,92805.81
2022-12-11T04:05:35.421Z,92806.95
2022-12-11T04:08:01.818Z,92803.72
2022-12-11T04:10:28.155Z,92802.44
2022-12-11T04:12:54.499Z,92809.01
2022-12-11T04:15:20.880Z,92810.50
2022-12-11T04:17:47.221Z,92820.58
2022-12-11T04:20:13.608Z,92839.27
2022-12-11T04:22:39.977Z,92837.66
2022-12-11T04:25:06.360Z,92823.84
2022-12-11T04:27:32.727Z,92830.09
2022-12-11T04:29:59.111Z,92842.66
2022-12-11T04:32:25.454Z,92848.88
2022-12-11T04:34:51.838Z,92857.91
2022-12-11T04:37:18.178Z,92859.53
2022-12-11T04:39:44.568Z,92863.53
2022-12-11T04:42:10.911Z,92869.34
2022-12-11T04:44:37.294Z,92883.01
2022-12-11T04:47:03.651Z,92886.54
2022-12-11T04:49:30.034Z,92881.87
2022-12-11T04:51:56.375Z,92871.73
2022-12-11T04:54:22.795Z,92876.25
2022-12-11T04:56:49.126Z,92865.59
2022-12-11T04:59:15.509Z,92884.45
2022-12-11T05:01:41.882Z,92869.45
2022-12-11T05:04:08.301Z,92881.55
2022-12-11T05:06:34.650Z,92869.02
2022-12-11T05:09:01.031Z,92861.45
2022-12-11T05:11:27.376Z,92854.86
2022-12-11T05:13:53.775Z,92868.05
2022-12-11T05:16:20.162Z,92873.32
2022-12-11T05:18:46.511Z,92886.54
2022-12-11T05:21:12.852Z,92883.48
2022-12-11T05:23:39.249Z,92898.12
2022-12-11T05:26:05.588Z,92900.20
2022-12-11T05:28:31.969Z,92893.78
2022-12-11T05:30:58.348Z,92883.97
2022-12-11T05:33:24.691Z,92885.25
2022-12-11T05:35:51.035Z,92906.31
2022-12-11T05:38:17.421Z,92901.97
2022-12-11T05:40:43.761Z,92898.73
2022-12-11T05:43:10.145Z,92898.27
2022-12-11T05:45:36.488Z,92886.69
2022-12-11T05:48:02.908Z,92876.39
2022-12-11T05:50:29.218Z,92876.88
2022-12-11T05:52:55.755Z,92860.95
2022-12-11T05:55:22.098Z,92857.28
2022-12-11T05:57:48.490Z,92861.44
2022-12-11T06:00:14.829Z,92859.05
2022-12-11T06:02:41.321Z,92845.02
2022-12-11T06:05:07.670Z,92864.52
2022-12-11T06:07:33.990Z,92862.09
2022-12-11T06:10:00.327Z,92858.72
2022-12-11T06:12:26.736Z,92836.84
2022-12-11T06:14:53.101Z,92846.98
2022-12-11T06:17:19.476Z,92875.23
2022-12-11T06:19:45.845Z,92854.84
2022-12-11T06:22:12.196Z,92849.99
2022-12-11T06:24:38.532Z,92881.05
2022-12-11T06:27:04.940Z,92892.44
2022-12-11T06:29:31.307Z,92906.30
2022-12-11T06:31:57.741Z,92932.17
2022-12-11T06:34:24.045Z,92945.99
2022-12-11T06:36:50.451Z,92930.41
2022-12-11T06:39:16.827Z,92949.52
2022-12-11T06:41:43.231Z,92962.72
2022-12-11T06:44:09.578Z,92942.80
2022-12-11T06:46:35.962Z,92950.99
2022-12-11T06:49:02.304Z,92936.66
2022-12-11T06:51:28.701Z,92946.47
2022-12-11T06:53:55.037Z,92932.80
2022-12-11T06:56:21.418Z,92943.09
2022-12-11T06:58:47.787Z,92927.35
2022-12-11T07:01:14.245Z,92941.66
2022-12-11T07:03:40.530Z,92947.28
2022-12-11T07:06:06.921Z,92948.23
2022-12-11T07:08:33.259Z,92945.84
2022-12-11T07:10:59.656Z,92939.89
2022-12-11T07:13:26.001Z,92969.48
2022-12-11T07:15:52.387Z,92945.66
2022-12-11T07:18:18.767Z,92954.67
2022-12-11T07:20:45.166Z,92959.34
2022-12-11T07:23:11.517Z,92952.75
2022-12-11T07:25:37.960Z,92944.89
2022-12-11T07:28:04.304Z,92959.04
2022-12-11T07:30:30.691Z,92966.09
2022-12-11T07:32:57.110Z,92973.34
2022-12-11T07:35:23.432Z,92970.10
2022-12-11T07:37:49.775Z,92968.81
2022-12-11T07:40:16.208Z,92973.30
2022-12-11T07:42:46.112Z,92982.97
2022-12-11T07:45:09.289Z,92988.27
2022-12-11T07:47:35.325Z,92991.17
2022-12-11T07:50:01.723Z,92994.22
2022-12-11T07:52:28.205Z,92993.44
2022-12-11T07:54:54.594Z,92994.73
2022-12-11T07:57:20.957Z,92994.41
2022-12-11T07:59:47.358Z,92995.20
2022-12-11T08:02:13.731Z,93002.27
2022-12-11T08:04:40.083Z,93003.08
2022-12-11T08:07:06.453Z,92995.50
2022-12-11T08:09:32.841Z,93006.61
2022-12-11T08:11:59.227Z,93003.08
2022-12-11T08:14:25.611Z,93001.64
2022-12-11T08:16:51.986Z,93003.23
2022-12-11T08:19:18.359Z,93023.66
2022-12-11T08:21:44.702Z,93007.74
2022-12-11T08:24:11.086Z,93001.31
2022-12-11T08:26:37.431Z,93000.02
2022-12-11T08:29:03.828Z,92993.73
2022-12-11T08:31:30.166Z,92990.54
2022-12-11T08:33:56.563Z,92991.79
2022-12-11T08:36:22.941Z,92989.06
2022-12-11T08:38:49.321Z,92983.92
2022-12-11T08:41:15.664Z,92979.43
2022-12-11T08:43:42.078Z,92972.19
2022-12-11T08:46:08.483Z,92978.14
2022-12-11T08:48:34.816Z,92978.77
2022-12-11T08:51:01.157Z,92977.48
2022-12-11T08:53:27.563Z,92974.28
2022-12-11T08:55:53.913Z,92974.28
2022-12-11T08:58:20.291Z,92967.05
2022-12-11T09:00:46.633Z,92973.00
2022-12-11T09:03:13.190Z,92976.20
2022-12-11T09:05:39.379Z,92970.24
2022-12-11T09:08:05.837Z,92971.20
2022-12-11T09:10:32.159Z,92964.14
2022-12-11T09:12:58.544Z,92961.86
2022-12-11T09:15:24.891Z,92963.47
2022-12-11T09:17:51.273Z,92959.61
2022-12-11T09:20:17.622Z,92953.66
2022-12-11T09:22:44.008Z,92946.41
2022-12-11T09:25:10.675Z,92943.20
2022-12-11T09:27:36.746Z,92943.34
2022-12-11T09:30:03.121Z,92943.34
2022-12-11T09:32:29.509Z,92942.06
2022-12-11T09:34:55.895Z,92943.02
2022-12-11T09:37:22.288Z,92935.44
2022-12-11T09:39:48.628Z,92938.69
2022-12-11T09:42:15.017Z,92941.88
2022-12-11T09:44:41.364Z,92931.10
2022-12-11T09:47:07.753Z,92933.20
2022-12-11T09:49:34.093Z,92934.33
2022-12-11T09:52:00.495Z,92936.72
2022-12-11T09:54:26.821Z,92939.77
2022-12-11T09:56:53.272Z,92949.44
2022-12-11T09:59:19.619Z,92937.20
2022-12-11T10:01:46.070Z,92936.72
2022-12-11T10:04:12.348Z,92944.92
2022-12-11T10:06:38.782Z,92948.63
2022-12-11T10:09:05.119Z,92944.77
2022-12-11T10:11:31.508Z,92941.20
2022-12-11T10:13:57.847Z,92941.06
2022-12-11T10:16:24.242Z,92932.53
2022-12-11T10:18:50.578Z,92936.25
2022-12-11T10:21:16.990Z,92932.72
2022-12-11T10:23:43.357Z,92935.77
2022-12-11T10:26:09.738Z,92936.25
2022-12-11T10:28:36.082Z,92946.55
2022-12-11T10:31:02.557Z,92946.06
2022-12-11T10:33:28.839Z,92944.31
2022-12-11T10:35:55.222Z,92939.30
2022-12-11T10:38:21.587Z,92944.83
2022-12-11T10:40:47.973Z,92945.61
2022-12-11T10:43:14.342Z,92936.78
2022-12-11T10:45:40.737Z,92934.97
2022-12-11T10:48:07.081Z,92935.31
2022-12-11T10:50:33.480Z,92929.86
2022-12-11T10:52:59.832Z,92925.97
2022-12-11T10:55:26.213Z,92916.94
2022-12-11T10:57:52.558Z,92913.27
2022-12-11T11:00:18.980Z,92916.95
2022-12-11T11:02:45.343Z,92912.61
2022-12-11T11:05:12.037Z,92917.75
2022-12-11T11:07:38.079Z,92906.84
2022-12-11T11:10:04.467Z,92904.08
2022-12-11T11:12:30.816Z,92901.03
2022-12-11T11:14:57.209Z,92907.61
2022-12-11T11:17:23.550Z,92898.16
2022-12-11T11:19:49.939Z,92896.37
2022-12-11T11:22:16.328Z,92900.27
2022-12-11T11:24:42.676Z,92897.99
2022-12-11T11:27:13.503Z,92899.94
2022-12-11T11:29:35.416Z,92898.16
2022-12-11T11:32:01.804Z,92898.66
2022-12-11T11:34:28.153Z,92901.23
2022-12-11T11:36:54.536Z,92898.03
2022-12-11T11:39:20.871Z,92895.42
2022-12-11T11:41:47.275Z,92884.17
2022-12-11T11:44:13.603Z,92884.02
2022-12-11T11:46:40.045Z,92879.02
2022-12-11T11:49:06.329Z,92888.52
2022-12-11T11:51:32.724Z,92896.28
2022-12-11T11:53:59.061Z,92885.17
2022-12-11T11:56:25.456Z,92889.50
2022-12-11T11:58:51.841Z,92886.45
2022-12-11T12:01:18.236Z,92880.84
2022-12-11T12:03:44.620Z,92874.23
2022-12-11T12:06:15.093Z,92868.79
2022-12-11T12:08:37.370Z,92869.41
2022-12-11T12:11:03.770Z,92861.06
2022-12-11T12:13:49.279Z,92862.65
2022-12-11T12:15:56.581Z,92869.73
2022-12-11T12:18:22.887Z,92865.55
2022-12-11T12:20:49.284Z,92860.25
2022-12-11T12:23:15.628Z,92857.20
2022-12-11T12:25:42.033Z,92862.98
2022-12-11T12:28:08.381Z,92859.44
2022-12-11T12:30:34.777Z,92862.98
2022-12-11T12:33:01.496Z,92870.89
2022-12-11T12:35:27.932Z,92867.84
2022-12-11T12:37:54.265Z,92887.61
2022-12-11T12:40:20.658Z,92891.30
2022-12-11T12:42:47.031Z,92889.53
2022-12-11T12:45:13.823Z,92897.72
2022-12-11T12:47:39.764Z,92900.96
2022-12-11T12:50:06.150Z,92912.54
2022-12-11T12:52:32.493Z,92918.35
2022-12-11T12:54:58.876Z,92921.73
2022-12-11T12:57:25.216Z,92921.73
2022-12-11T12:59:51.604Z,92902.32
2022-12-11T13:02:18.036Z,92940.08
2022-12-11T13:04:59.662Z,92944.23
2022-12-11T13:07:10.671Z,92962.75
2022-12-11T13:09:37.051Z,92973.67
2022-12-11T13:12:03.400Z,92959.20
2022-12-11T13:14:29.786Z,92961.77
2022-12-11T13:16:56.129Z,92995.22
2022-12-11T13:19:22.533Z,92962.91
2022-12-11T13:21:48.880Z,92961.30
2022-12-11T13:24:15.277Z,93006.13
2022-12-11T13:26:41.616Z,93010.02
2022-12-11T13:29:08.050Z,92999.55
2022-12-11T13:31:34.425Z,93003.08
2022-12-11T13:34:00.789Z,93027.70
2022-12-11T13:36:27.128Z,93047.47
2022-12-11T13:38:53.540Z,93051.80
2022-12-11T13:41:19.881Z,93053.09
2022-12-11T13:43:46.268Z,93060.66
2022-12-11T13:46:12.678Z,93064.66
2022-12-11T13:48:39.003Z,93093.46
2022-12-11T13:51:05.355Z,93092.00
2022-12-11T13:53:31.774Z,93104.38
2022-12-11T13:55:58.117Z,93100.99
2022-12-11T13:58:24.534Z,93115.33
2022-12-11T14:00:50.975Z,93117.08
2022-12-11T14:03:17.296Z,93113.70
2022-12-11T14:05:43.650Z,93125.93
2022-12-11T14:08:10.098Z,93138.28
2022-12-11T14:10:36.376Z,93139.41
2022-12-11T14:13:02.765Z,93150.36
2022-12-11T14:15:29.107Z,93145.53
2022-12-11T14:17:55.514Z,93157.89
2022-12-11T14:20:21.855Z,93145.03
2022-12-11T14:22:48.251Z,93152.43
2022-12-11T14:25:14.850Z,93168.67
2022-12-11T14:27:40.983Z,93162.89
2022-12-11T14:30:07.327Z,93172.70
2022-12-11T14:32:33.717Z,93182.33
2022-12-11T14:35:00.065Z,93188.61
2022-12-11T14:37:26.443Z,93188.14
2022-12-11T14:39:52.799Z,93187.80
2022-12-11T14:42:19.209Z,93187.97
2022-12-11T14:44:45.557Z,93189.42
2022-12-11T14:47:11.939Z,93200.68
2022-12-11T14:49:38.278Z,93206.45
2022-12-11T14:52:04.672Z,93210.65
2022-12-11T14:54:31.027Z,93221.08
2022-12-11T14:56:57.396Z,93223.98
2022-12-11T14:59:28.533Z,93232.04
2022-12-11T15:01:51.964Z,93229.47
2022-12-11T15:04:16.470Z,93234.75
2022-12-11T15:06:42.861Z,93214.45
2022-12-11T15:09:09.196Z,93231.84
2022-12-11T15:11:35.583Z,93245.38
2022-12-11T15:14:01.928Z,93242.63
2022-12-11T15:16:28.396Z,93243.30
2022-12-11T15:18:54.665Z,93240.08
2022-12-11T15:21:21.049Z,93245.70
2022-12-11T15:23:47.414Z,93251.03
2022-12-11T15:26:13.795Z,93247.48
2022-12-11T15:28:40.133Z,93251.33
2022-12-11T15:31:06.543Z,93253.28
2022-12-11T15:33:34.745Z,93258.15
2022-12-11T15:35:59.245Z,93260.86
2022-12-11T15:38:25.593Z,93259.58
2022-12-11T15:40:51.978Z,93258.63
2022-12-11T15:43:18.340Z,93258.15
2022-12-11T15:45:44.838Z,93252.49
2022-12-11T15:48:11.087Z,93256.20
2022-12-11T15:50:37.473Z,93250.25
2022-12-11T15:53:03.806Z,93247.05
2022-12-11T15:55:30.215Z,93248.16
2022-12-11T15:57:56.582Z,93261.36
2022-12-11T16:00:23.005Z,93264.73
2022-12-11T16:02:49.412Z,93263.93
2022-12-11T16:05:15.754Z,93259.26
2022-12-11T16:07:42.097Z,93265.22
2022-12-11T16:10:08.481Z,93280.81
2022-12-11T16:12:34.820Z,93285.32
2022-12-11T16:15:01.239Z,93283.56
2022-12-11T16:17:27.588Z,93284.98
2022-12-11T16:19:54.047Z,93295.61
2022-12-11T16:22:20.392Z,93300.76
2022-12-11T16:24:46.778Z,93307.53
2022-12-11T16:27:13.118Z,93308.00
2022-12-11T16:29:39.504Z,93318.30
2022-12-11T16:32:05.853Z,93319.25
2022-12-11T16:34:33.682Z,93328.11
2022-12-11T16:36:58.585Z,93329.06
2022-12-11T16:39:24.975Z,93335.02
2022-12-11T16:41:51.326Z,93347.08
2022-12-11T16:44:17.705Z,93340.14
2022-12-11T16:46:44.112Z,93353.82
2022-12-11T16:49:10.436Z,93345.29
2022-12-11T16:51:36.776Z,93348.34
2022-12-11T16:54:03.184Z,93355.58
2022-12-11T16:56:29.530Z,93362.97
2022-12-11T16:58:55.921Z,93371.83
2022-12-11T17:01:22.299Z,93359.55
2022-12-11T17:03:48.663Z,93367.27
2022-12-11T17:06:16.429Z,93366.16
2022-12-11T17:08:41.395Z,93369.54
2022-12-11T17:11:07.737Z,93369.20
2022-12-11T17:13:36.179Z,93365.81
2022-12-11T17:16:00.619Z,93374.83
2022-12-11T17:18:26.980Z,93366.47
2022-12-11T17:20:53.338Z,93370.33
2022-12-11T17:23:19.733Z,93378.05
2022-12-11T17:25:46.083Z,93379.47
2022-12-11T17:28:12.474Z,93378.19
2022-12-11T17:30:38.818Z,93397.47
2022-12-11T17:33:05.245Z,93406.17
2022-12-11T17:35:31.586Z,93419.81
2022-12-11T17:37:57.971Z,93426.76
2022-12-11T17:40:24.314Z,93422.56
2022-12-11T17:42:50.704Z,93419.04
2022-12-11T17:45:17.050Z,93408.89
2022-12-11T17:47:43.436Z,93402.12
2022-12-11T17:50:09.787Z,93412.91
2022-12-11T17:52:39.637Z,93416.27
2022-12-11T17:55:02.513Z,93417.72
2022-12-11T17:57:28.908Z,93416.44
2022-12-11T17:59:55.444Z,93415.29
2022-12-11T18:02:21.651Z,93420.30
2022-12-11T18:04:47.995Z,93427.54
2022-12-11T18:07:14.389Z,93419.02
2022-12-11T18:09:40.741Z,93415.97
2022-12-11T18:12:07.125Z,93421.11
2022-12-11T18:14:33.471Z,93429.64
2022-12-11T18:16:59.866Z,93431.56
2022-12-11T18:19:26.217Z,93431.23
2022-12-11T18:21:52.666Z,93430.28
2022-12-11T18:24:19.014Z,93430.28
2022-12-11T18:26:45.406Z,93435.09
2022-12-11T18:29:11.749Z,93431.56
2022-12-11T18:31:42.405Z,93428.52
2022-12-11T18:34:04.507Z,93427.70
2022-12-11T18:36:30.861Z,93425.13
2022-12-11T18:38:57.211Z,93435.90
2022-12-11T18:41:23.595Z,93437.52
2022-12-11T18:43:49.992Z,93446.19
2022-12-11T18:46:16.467Z,93445.23
2022-12-11T18:48:42.719Z,93445.55
2022-12-11T18:51:09.112Z,93448.63
2022-12-11T18:53:35.446Z,93451.84
2022-12-11T18:56:01.829Z,93462.13
2022-12-11T18:58:28.175Z,93463.42
2022-12-11T19:00:54.622Z,93461.48
2022-12-11T19:03:20.906Z,93463.08
2022-12-11T19:05:47.302Z,93465.98
2022-12-11T19:08:13.714Z,93457.94
2022-12-11T19:10:40.034Z,93456.34
2022-12-11T19:13:06.378Z,93461.48
2022-12-11T19:15:32.801Z,93458.41
2022-12-11T19:17:59.142Z,93458.91
2022-12-11T19:20:48.057Z,93460.84
2022-12-11T19:22:51.884Z,93462.77
2022-12-11T19:25:18.269Z,93464.36
2022-12-11T19:27:44.690Z,93466.63
2022-12-11T19:30:13.839Z,93474.66
2022-12-11T19:32:40.187Z,93474.35
2022-12-11T19:35:06.570Z,93478.68
2022-12-11T19:37:32.977Z,93493.14
2022-12-11T19:39:59.367Z,93491.85
2022-12-11T19:42:25.713Z,93498.80
2022-12-11T19:44:52.091Z,93508.27
2022-12-11T19:47:18.433Z,93505.70
2022-12-11T19:49:44.830Z,93509.39
2022-12-11T19:52:11.250Z,93513.72
2022-12-11T19:54:37.628Z,93511.15
2022-12-11T19:57:03.971Z,93509.55
2022-12-11T19:59:30.355Z,93513.72
2022-12-11T20:01:56.733Z,93516.30
2022-12-11T20:04:23.082Z,93515.52
2022-12-11T20:06:50.661Z,93501.84
2022-12-11T20:09:15.940Z,93497.17
2022-12-11T20:11:42.150Z,93502.65
2022-12-11T20:14:08.537Z,93502.14
2022-12-11T20:17:08.765Z,93491.07
2022-12-11T20:19:01.263Z,93493.64
2022-12-11T20:21:27.628Z,93507.63
2022-12-11T20:23:54.003Z,93515.81
2022-12-11T20:26:20.349Z,93509.08
2022-12-11T20:28:46.748Z,93511.02
2022-12-11T20:31:19.513Z,93512.30
2022-12-11T20:33:39.465Z,93509.39
2022-12-11T20:36:05.813Z,93511.48
2022-12-11T20:38:34.581Z,93508.10
2022-12-11T20:40:58.565Z,93504.72
2022-12-11T20:43:24.950Z,93504.24
2022-12-11T20:45:51.308Z,93510.67
2022-12-11T20:48:17.673Z,93513.92
2022-12-11T20:50:44.028Z,93528.72
2022-12-11T20:53:10.414Z,93526.62
2022-12-11T20:55:36.758Z,93516.33
2022-12-11T20:58:03.141Z,93505.73
2022-12-11T21:00:29.521Z,93507.02
2022-12-11T21:02:55.906Z,93518.59
2022-12-11T21:05:22.248Z,93513.28
2022-12-11T21:07:48.658Z,93509.42
2022-12-11T21:10:15.027Z,93507.80
2022-12-11T21:12:41.391Z,93517.95
2022-12-11T21:15:07.736Z,93531.16
2022-12-11T21:17:34.154Z,93520.52
2022-12-11T21:20:00.499Z,93507.02
2022-12-11T21:22:26.921Z,93517.48
2022-12-11T21:24:53.264Z,93527.30
2022-12-11T21:27:19.662Z,93532.91
2022-12-11T21:29:46.060Z,93531.29
2022-12-11T21:32:12.447Z,93523.09
2022-12-11T21:34:38.812Z,93523.57
2022-12-11T21:37:05.191Z,93525.33
2022-12-11T21:39:36.059Z,93530.34
2022-12-11T21:41:57.930Z,93528.24
2022-12-11T21:46:50.656Z,93520.19
2022-12-11T21:49:17.002Z,93527.77
2022-12-11T21:51:47.086Z,93526.14
2022-12-11T21:54:09.766Z,93530.00
2022-12-11T21:56:36.099Z,93524.86
2022-12-11T21:59:02.527Z,93520.19
2022-12-11T22:01:28.970Z,93527.91
2022-12-11T22:03:55.280Z,93524.05
2022-12-11T22:06:21.638Z,93530.00
2022-12-11T22:08:48.009Z,93542.05
2022-12-11T22:11:14.358Z,93535.48
2022-12-11T22:13:40.735Z,93529.66
2022-12-11T22:16:07.186Z,93536.91
2022-12-11T22:18:33.468Z,93533.86
2022-12-11T22:20:59.805Z,93527.91
2022-12-11T22:23:26.192Z,93530.48
2022-12-11T22:25:54.807Z,93525.02
2022-12-11T22:28:21.185Z,93526.62
2022-12-11T22:30:47.611Z,93534.34
2022-12-11T22:33:13.923Z,93539.48
2022-12-11T22:35:40.259Z,93540.46
2022-12-11T22:38:06.641Z,93541.24
2022-12-11T22:40:32.988Z,93539.95
2022-12-11T22:42:59.375Z,93553.63
2022-12-11T22:45:25.717Z,93557.97
2022-12-11T22:47:52.102Z,93559.25
2022-12-11T22:50:18.449Z,93557.02
2022-12-11T22:52:44.834Z,93563.92
2022-12-11T22:55:11.435Z,93567.78
2022-12-11T22:57:37.597Z,93568.59
2022-12-11T23:00:03.944Z,93565.69
2022-12-11T23:02:30.402Z,93565.69
2022-12-11T23:04:56.721Z,93563.11
2022-12-11T23:07:23.166Z,93559.76
2022-12-11T23:09:49.471Z,93555.90
2022-12-11T23:12:15.859Z,93554.27
2022-12-11T23:14:42.200Z,93571.34
2022-12-11T23:17:08.654Z,93570.22
2022-12-11T23:19:34.943Z,93571.03
2022-12-11T23:22:01.330Z,93572.80
2022-12-11T23:24:27.675Z,93577.47
2022-12-11T23:26:54.079Z,93578.62
2022-12-11T23:29:20.424Z,93575.37
2022-12-11T23:31:46.813Z,93571.38
2022-12-11T23:34:13.156Z,93581.80
2022-12-11T23:36:39.568Z,93582.00
2022-12-11T23:39:05.907Z,93582.11
2022-12-11T23:41:32.294Z,93585.05
2022-12-11T23:43:58.639Z,93583.77
2022-12-11T23:46:25.082Z,93594.53
2022-12-11T23:48:51.379Z,93593.69
2022-12-11T23:51:17.802Z,93596.16
2022-12-11T23:53:44.146Z,93605.16
2022-12-11T23:56:10.520Z,93620.94
2022-12-11T23:58:36.864Z,93623.17
